Time;durP1;ratioP1;P1;durP2;ratioP2;P2;SDS_P1;SDS_P2;PMS_P1;PMS_P2;Temp;Humidity;BMP_temperature;BMP_pressure;BME280_temperature;BME280_humidity;BME280_pressure;Samples;Min_cycle;Max_cycle;Signal;HPM_P1;HPM_P2
2023/03/24 00:02:44;;;;;;;2.58;0.70;;;;;;;17.84;56.52;95792.00;10392499;28;20124;-34
2023/03/24 00:07:44;;;;;;;2.53;0.57;;;;;;;17.70;53.31;95783.72;10389911;28;20528;-34
2023/03/24 00:12:45;;;;;;;2.40;0.70;;;;;;;17.63;52.32;95782.13;10394117;28;20053;-34
2023/03/24 00:17:49;;;;;;;1.63;0.55;;;;;;;17.57;52.06;95772.09;10398010;28;20410;-34
2023/03/24 00:22:55;;;;;;;2.63;0.50;;;;;;;17.59;51.76;95770.38;10387097;28;20101;-34
2023/03/24 00:27:56;;;;;;;0.90;0.50;;;;;;;17.56;51.77;95755.22;10393686;28;20060;-34
2023/03/24 00:32:57;;;;;;;1.70;0.57;;;;;;;17.57;51.58;95761.97;10393855;28;20040;-34
2023/03/24 00:37:58;;;;;;;0.70;0.45;;;;;;;17.56;50.95;95752.69;10381893;28;20039;-34
2023/03/24 00:42:58;;;;;;;0.73;0.67;;;;;;;17.56;51.49;95760.28;10401662;28;20386;-33
2023/03/24 00:47:58;;;;;;;2.73;0.60;;;;;;;17.55;51.45;95761.97;10391788;28;20022;-34
2023/03/24 00:53:00;;;;;;;0.60;0.40;;;;;;;17.54;51.84;95747.66;10401094;28;20460;-34
2023/03/24 00:58:01;;;;;;;1.42;0.77;;;;;;;17.61;55.27;95756.00;10392087;28;20695;-33
2023/03/24 01:03:02;;;;;;;2.63;0.93;;;;;;;17.85;57.63;95753.16;10380677;28;20029;-34
2023/03/24 01:08:05;;;;;;;1.92;0.65;;;;;;;17.86;55.70;95748.09;10383112;28;20112;-37
2023/03/24 01:13:05;;;;;;;0.95;0.60;;;;;;;17.70;55.49;95722.97;10390269;28;20053;-34
2023/03/24 01:18:08;;;;;;;2.53;1.30;;;;;;;17.64;52.68;95738.22;10387050;28;20666;-34
2023/03/24 01:23:09;;;;;;;1.50;0.45;;;;;;;17.57;52.12;95721.47;10382788;28;20120;-35
2023/03/24 01:28:11;;;;;;;1.75;0.60;;;;;;;17.56;51.92;95727.41;10387885;28;20033;-34
2023/03/24 01:33:11;;;;;;;2.17;0.70;;;;;;;17.54;51.73;95716.44;10390608;28;20513;-35
2023/03/24 01:38:14;;;;;;;1.50;0.77;;;;;;;17.53;51.70;95709.69;10377260;28;20025;-34
2023/03/24 01:43:26;;;;;;;1.50;1.02;;;;;;;17.52;51.36;95708.03;10392983;28;20513;-34
2023/03/24 01:48:42;;;;;;;0.57;0.50;;;;;;;17.51;51.33;95702.13;10381051;28;20053;-35
2023/03/24 01:53:58;;;;;;;2.75;0.70;;;;;;;17.46;51.22;95700.50;10381387;28;20033;-35
2023/03/24 01:59:02;;;;;;;0.73;0.47;;;;;;;17.49;51.39;95697.97;10385578;28;20104;-35
2023/03/24 02:04:37;;;;;;;1.23;0.45;;;;;;;17.52;51.55;95702.97;10386270;28;20103;-34
2023/03/24 02:09:39;;;;;;;1.55;1.02;;;;;;;17.75;56.08;95711.13;10398572;28;20032;-35
2023/03/24 02:14:40;;;;;;;4.67;1.13;;;;;;;17.85;57.70;95692.41;10421787;28;20489;-35
2023/03/24 02:19:49;;;;;;;1.10;0.80;;;;;;;17.84;56.77;95705.94;10413690;28;20300;-34
2023/03/24 02:24:49;;;;;;;1.60;0.80;;;;;;;17.57;55.38;95680.97;10400513;28;20042;-34
2023/03/24 02:30:15;;;;;;;2.50;0.60;;;;;;;17.61;53.01;95682.59;10411892;28;20029;-36
2023/03/24 02:35:21;;;;;;;1.95;0.65;;;;;;;17.57;52.27;95706.28;10408027;28;20452;-34
2023/03/24 02:40:25;;;;;;;1.42;0.45;;;;;;;17.57;52.04;95696.16;10403352;28;20501;-34
2023/03/24 02:45:35;;;;;;;1.58;0.80;;;;;;;17.56;51.85;95714.75;10398996;28;20033;-34
2023/03/24 02:50:38;;;;;;;6.05;1.55;;;;;;;17.50;51.71;95714.81;10373646;28;20122;-37
2023/03/24 02:56:10;;;;;;;1.17;0.65;;;;;;;17.52;51.56;95708.03;10393541;28;20042;-33
2023/03/24 03:01:17;;;;;;;3.20;1.15;;;;;;;17.52;51.62;95710.56;10405207;28;20479;-33
2023/03/24 03:06:39;;;;;;;1.08;0.40;;;;;;;17.50;51.47;95694.56;10410950;28;20497;-37
2023/03/24 03:11:43;;;;;;;0.40;0.40;;;;;;;17.48;51.47;95681.09;10399784;28;20037;-34
2023/03/24 03:16:53;;;;;;;0.80;0.55;;;;;;;17.55;55.75;95686.06;10402056;28;20053;-34
2023/03/24 03:21:55;;;;;;;0.98;0.70;;;;;;;17.80;56.76;95681.50;10394511;28;20041;-35
2023/03/24 03:27:07;;;;;;;2.95;0.80;;;;;;;17.87;56.34;95662.84;10389059;28;20021;-35
2023/03/24 03:32:13;;;;;;;1.83;0.85;;;;;;;17.74;55.78;95658.81;10392346;28;20063;-34
2023/03/24 03:37:23;;;;;;;0.63;0.50;;;;;;;17.61;54.16;95668.28;10400024;28;20044;-34
2023/03/24 03:42:23;;;;;;;1.48;0.63;;;;;;;17.54;52.21;95679.31;10395516;28;20049;-35
2023/03/24 03:47:25;;;;;;;0.68;0.50;;;;;;;17.52;51.72;95672.59;10393291;28;20054;-34
2023/03/24 03:52:25;;;;;;;0.80;0.50;;;;;;;17.46;51.59;95677.72;10394963;28;20468;-34
2023/03/24 03:57:26;;;;;;;1.05;0.40;;;;;;;17.51;51.68;95706.34;10400172;28;20533;-34
2023/03/24 04:03:13;;;;;;;3.15;1.15;;;;;;;17.53;51.52;95724.88;10385657;28;20037;-34
2023/03/24 04:08:24;;;;;;;1.30;0.50;;;;;;;17.53;51.42;95740.06;10391956;28;20041;-35
2023/03/24 04:13:51;;;;;;;1.38;0.90;;;;;;;17.57;51.54;95802.47;10386827;28;20049;-34
2023/03/24 04:19:32;;;;;;;1.60;0.80;;;;;;;17.59;51.88;95818.47;10386391;28;20033;-34
2023/03/24 04:24:58;;;;;;;1.92;0.77;;;;;;;17.54;51.74;95838.75;10378433;28;20033;-34
2023/03/24 04:30:13;;;;;;;0.88;0.60;;;;;;;17.71;54.89;95852.06;10396568;28;20079;-34
2023/03/24 04:35:30;;;;;;;1.08;0.60;;;;;;;17.85;56.98;95846.84;10393322;28;20044;-36
2023/03/24 04:40:58;;;;;;;1.08;0.57;;;;;;;17.78;56.05;95830.03;10364237;28;20046;-36
2023/03/24 04:45:59;;;;;;;0.98;0.43;;;;;;;17.62;54.46;95831.06;10389745;28;20560;-35
2023/03/24 04:51:27;;;;;;;1.60;0.70;;;;;;;17.57;52.35;95842.94;10390787;28;20382;-34
2023/03/24 04:57:02;;;;;;;0.50;0.40;;;;;;;17.55;52.01;95834.50;10377988;28;20296;-34
2023/03/24 05:02:11;;;;;;;1.63;0.63;;;;;;;17.55;51.87;95834.50;10385695;28;20295;-34
2023/03/24 05:07:37;;;;;;;1.77;0.40;;;;;;;17.55;51.53;95829.44;10382249;28;20037;-35
2023/03/24 05:12:42;;;;;;;0.57;0.40;;;;;;;17.54;51.41;95812.59;10394051;28;20029;-35
2023/03/24 05:18:01;;;;;;;0.80;0.47;;;;;;;17.53;51.29;95809.25;10379890;28;20034;-33
2023/03/24 05:23:02;;;;;;;0.73;0.52;;;;;;;17.52;51.16;95794.91;10382585;28;20402;-34
2023/03/24 05:28:02;;;;;;;0.80;0.45;;;;;;;17.53;51.20;95789.00;10387051;28;20029;-34
2023/03/24 05:33:03;;;;;;;2.92;0.73;;;;;;;17.57;55.06;95799.94;10380403;28;20037;-34
2023/03/24 05:38:04;;;;;;;3.60;1.60;;;;;;;17.65;55.62;95780.44;10379649;28;20029;-34
2023/03/24 05:43:06;;;;;;;0.68;0.50;;;;;;;17.82;55.91;95788.66;10396532;28;20795;-34
2023/03/24 05:48:10;;;;;;;2.35;0.60;;;;;;;17.80;57.73;95792.88;10389165;28;20021;-34
2023/03/24 05:53:30;;;;;;;1.33;0.80;;;;;;;17.69;53.06;95789.66;10391964;28;20570;-34
2023/03/24 05:58:44;;;;;;;0.43;0.43;;;;;;;17.69;51.60;95793.03;10390688;28;20048;-34
2023/03/24 06:03:45;;;;;;;4.38;0.60;;;;;;;17.73;52.50;95814.91;10387820;28;20124;-36
2023/03/24 06:08:48;;;;;;;0.68;0.52;;;;;;;17.73;51.76;95826.75;10388017;28;20070;-34
2023/03/24 06:13:50;;;;;;;1.20;0.63;;;;;;;17.73;51.88;95829.28;10391725;28;20033;-35
2023/03/24 06:18:51;;;;;;;1.80;0.50;;;;;;;17.72;51.54;95847.81;10383480;28;20033;-33
2023/03/24 06:24:13;;;;;;;1.60;0.60;;;;;;;17.71;51.43;95851.22;10391354;28;20069;-35
2023/03/24 06:29:17;;;;;;;0.95;0.55;;;;;;;17.69;51.61;95851.25;10399973;28;20030;-34
2023/03/24 06:34:18;;;;;;;1.83;0.68;;;;;;;17.73;51.92;95855.41;10381215;28;20053;-35
2023/03/24 06:39:29;;;;;;;0.77;0.50;;;;;;;17.76;51.90;95862.13;10386805;28;20121;-35
2023/03/24 06:44:32;;;;;;;1.17;0.70;;;;;;;17.76;51.70;95857.91;10383902;28;20108;-34
2023/03/24 06:49:36;;;;;;;4.05;1.40;;;;;;;17.83;58.91;95869.63;10376655;28;20022;-34
2023/03/24 06:54:36;;;;;;;5.53;1.17;;;;;;;17.88;56.99;95862.00;10394970;28;20060;-34
2023/03/24 06:59:37;;;;;;;5.18;1.08;;;;;;;17.84;59.06;95873.84;10400800;28;20072;-34
2023/03/24 07:04:38;;;;;;;2.43;0.97;;;;;;;17.83;54.14;95884.00;10393046;28;20065;-35
2023/03/24 07:09:58;;;;;;;2.38;0.60;;;;;;;17.81;54.08;95880.63;10389359;28;20371;-34
2023/03/24 07:14:59;;;;;;;1.10;0.60;;;;;;;17.78;52.96;95900.94;10382895;28;20425;-33
2023/03/24 07:20:06;;;;;;;2.58;1.30;;;;;;;17.66;58.35;95914.53;10391460;28;20295;-34
2023/03/24 07:25:30;;;;;;;2.95;0.95;;;;;;;17.76;53.88;95925.44;10392790;28;20042;-34
2023/03/24 07:31:05;;;;;;;3.40;1.00;;;;;;;17.76;53.87;95925.44;10375494;28;20041;-35
2023/03/24 07:36:06;;;;;;;2.50;0.77;;;;;;;17.76;53.49;95940.63;10383120;28;20037;-34
2023/03/24 07:41:09;;;;;;;4.15;1.10;;;;;;;17.80;53.98;95952.38;10393331;28;20031;-34
2023/03/24 07:46:14;;;;;;;3.30;1.10;;;;;;;17.81;54.66;95944.78;10396002;28;20026;-34
2023/03/24 07:51:15;;;;;;;4.28;1.23;;;;;;;17.81;55.30;95928.72;10393115;28;20026;-34
2023/03/24 07:56:33;;;;;;;4.57;1.00;;;;;;;17.81;58.33;95934.66;10397824;28;20129;-34
2023/03/24 08:01:36;;;;;;;4.72;1.40;;;;;;;17.86;60.51;95927.00;10385227;28;20053;-35
2023/03/24 08:06:42;;;;;;;3.25;1.17;;;;;;;17.86;60.37;95942.19;10392506;28;20087;-34
2023/03/24 08:11:42;;;;;;;1.88;0.93;;;;;;;17.82;58.90;95928.72;10379612;28;20045;-31
2023/03/24 08:16:44;;;;;;;3.57;0.93;;;;;;;17.82;59.00;95961.66;10387275;28;20115;-33
2023/03/24 08:21:45;;;;;;;5.60;1.70;;;;;;;17.83;59.53;95948.13;10387408;28;20091;-34
2023/03/24 08:26:45;;;;;;;2.00;1.50;;;;;;;17.84;59.77;95938.84;10392015;28;20091;-33
2023/03/24 08:31:45;;;;;;;3.67;1.00;;;;;;;17.82;59.65;95911.00;10389941;28;20303;-34
2023/03/24 08:36:46;;;;;;;2.00;1.23;;;;;;;17.80;59.32;95861.25;10382203;28;20109;-35
2023/03/24 08:41:48;;;;;;;2.40;1.00;;;;;;;17.75;55.75;95863.00;10399059;28;20034;-34
2023/03/24 08:46:49;;;;;;;2.08;1.02;;;;;;;17.82;58.40;95925.38;10394524;28;20544;-35
2023/03/24 08:51:49;;;;;;;1.75;0.82;;;;;;;17.84;58.46;95941.38;10383746;28;20037;-34
2023/03/24 08:56:50;;;;;;;3.23;1.00;;;;;;;17.82;58.85;95941.38;10386372;28;20463;-35
2023/03/24 09:01:50;;;;;;;2.97;1.13;;;;;;;17.84;59.58;95943.91;10384697;28;20552;-33
2023/03/24 09:06:52;;;;;;;1.70;0.60;;;;;;;17.86;59.36;95925.31;10392456;28;20110;-34
2023/03/24 09:11:52;;;;;;;1.33;0.93;;;;;;;17.88;60.02;95922.75;10385997;28;20054;-34
2023/03/24 09:16:53;;;;;;;2.33;0.90;;;;;;;17.88;59.71;95940.47;10377663;28;20586;-34
2023/03/24 09:21:53;;;;;;;2.43;0.97;;;;;;;17.88;59.71;95912.63;10390993;28;20109;-34
2023/03/24 09:26:54;;;;;;;1.83;0.80;;;;;;;17.85;60.01;95898.34;10390756;28;20034;-36
2023/03/24 09:31:55;;;;;;;1.83;1.05;;;;;;;17.83;59.96;95917.75;10389740;28;20310;-34
2023/03/24 09:36:56;;;;;;;4.78;1.02;;;;;;;17.87;59.96;95943.88;10379121;28;20042;-35
2023/03/24 09:41:56;;;;;;;2.00;1.10;;;;;;;17.85;60.33;95961.63;10374658;28;20037;-34
2023/03/24 09:47:05;;;;;;;1.70;1.27;;;;;;;17.85;59.43;95991.16;10383961;28;20040;-35
2023/03/24 09:52:09;;;;;;;5.07;1.25;;;;;;;17.84;59.03;95992.84;10389783;28;20037;-34
2023/03/24 09:57:21;;;;;;;9.15;1.80;;;;;;;17.82;58.35;95996.28;10375070;28;20045;-35
2023/03/24 10:02:22;;;;;;;7.55;1.10;;;;;;;17.84;58.18;95994.56;10382777;28;20544;-34
2023/03/24 10:07:31;;;;;;;11.77;1.48;;;;;;;17.82;57.33;96002.16;10375595;28;20033;-35
2023/03/24 10:12:43;;;;;;;5.22;1.30;;;;;;;17.78;59.30;96030.03;10381962;28;20047;-34
2023/03/24 10:17:57;;;;;;;3.75;0.82;;;;;;;17.82;61.37;96031.72;10371644;28;20030;-33
2023/03/24 10:23:03;;;;;;;5.85;1.30;;;;;;;17.89;61.17;96043.44;10384511;28;20180;-34
2023/03/24 10:28:20;;;;;;;2.42;0.88;;;;;;;17.88;60.25;96019.84;10385785;28;20038;-33
2023/03/24 10:33:20;;;;;;;3.70;1.08;;;;;;;17.78;55.55;95979.41;10384057;28;20021;-36
2023/03/24 10:38:22;;;;;;;2.53;1.20;;;;;;;17.84;56.16;95961.63;10379463;28;20030;-34
2023/03/24 10:43:25;;;;;;;3.60;0.88;;;;;;;17.80;58.69;96013.13;10374284;28;20029;-34
2023/03/24 10:48:46;;;;;;;3.97;1.27;;;;;;;17.85;57.65;96029.16;10384677;28;20496;-34
2023/03/24 10:53:47;;;;;;;1.67;1.10;;;;;;;17.86;56.21;96038.41;10396932;28;20029;-34
2023/03/24 10:58:48;;;;;;;3.20;1.17;;;;;;;17.85;56.53;96036.75;10393401;28;20037;-35
2023/03/24 11:03:49;;;;;;;7.72;1.63;;;;;;;17.86;56.84;96023.22;10396211;28;20671;-34
2023/03/24 11:09:07;;;;;;;6.35;1.98;;;;;;;17.88;59.27;96011.38;10387677;28;20030;-34
2023/03/24 11:14:25;;;;;;;3.85;1.38;;;;;;;17.82;54.68;96007.22;10388511;28;20445;-34
2023/03/24 11:19:25;;;;;;;4.93;1.90;;;;;;;17.84;55.06;96027.47;10394513;28;20030;-35
2023/03/24 11:24:27;;;;;;;5.40;1.42;;;;;;;17.88;58.40;96046.84;10373721;28;20077;-34
2023/03/24 11:29:37;;;;;;;6.32;2.33;;;;;;;17.95;60.52;96018.06;10380587;28;20030;-34
2023/03/24 11:34:43;;;;;;;4.28;2.05;;;;;;;17.93;60.05;95994.47;10381951;28;20026;-34
2023/03/24 11:39:44;;;;;;;5.97;2.55;;;;;;;17.92;58.00;96013.06;10390306;28;20033;-34
2023/03/24 11:44:50;;;;;;;4.45;1.90;;;;;;;17.91;55.79;96018.97;10387557;28;20030;-35
2023/03/24 11:49:59;;;;;;;5.10;1.52;;;;;;;17.90;55.34;96014.75;10389942;28;20030;-33
2023/03/24 11:55:00;;;;;;;5.47;1.98;;;;;;;17.87;55.98;95997.03;10394171;28;20134;-34
2023/03/24 12:00:18;;;;;;;8.13;2.27;;;;;;;17.83;55.83;96021.56;10387818;28;20465;-34
2023/03/24 12:05:40;;;;;;;7.57;1.85;;;;;;;17.84;55.50;96008.03;10381405;28;20291;-35
2023/03/24 12:11:00;;;;;;;6.05;1.77;;;;;;;17.87;55.58;96004.66;10399397;28;20038;-35
2023/03/24 12:16:28;;;;;;;3.25;1.77;;;;;;;17.88;56.09;96016.44;10401962;28;20116;-34
2023/03/24 12:21:46;;;;;;;4.00;1.42;;;;;;;17.94;57.93;96001.22;10375116;28;20096;-35
2023/03/24 12:26:50;;;;;;;6.45;1.70;;;;;;;18.04;56.90;95987.59;10382695;28;20131;-34
2023/03/24 12:32:11;;;;;;;4.65;1.50;;;;;;;18.09;59.12;95986.69;10387632;28;20033;-34
2023/03/24 12:37:30;;;;;;;5.50;0.82;;;;;;;18.17;58.43;95992.53;10377574;28;20092;-35
2023/03/24 12:42:38;;;;;;;13.07;1.80;;;;;;;18.23;58.17;95989.06;10378964;28;20461;-35
2023/03/24 12:47:57;;;;;;;6.15;1.67;;;;;;;18.27;58.63;96000.88;10386336;28;20065;-34
2023/03/24 12:53:28;;;;;;;3.58;1.30;;;;;;;18.32;58.52;96004.25;10379235;28;20053;-34
2023/03/24 12:58:38;;;;;;;4.53;1.58;;;;;;;18.34;58.38;96002.53;10381272;28;20177;-34
2023/03/24 13:03:42;;;;;;;4.50;1.08;;;;;;;18.36;58.82;96041.34;10386387;28;20677;-35
2023/03/24 13:08:52;;;;;;;3.42;1.38;;;;;;;18.38;58.57;96044.69;10393099;28;20034;-34
2023/03/24 13:13:55;;;;;;;8.35;2.40;;;;;;;18.39;58.40;96031.16;10396544;28;20037;-35
2023/03/24 13:18:58;;;;;;;10.32;2.65;;;;;;;18.41;58.67;96016.81;10373845;28;20030;-36
2023/03/24 13:24:06;;;;;;;6.47;1.83;;;;;;;18.45;58.55;96000.69;10389987;28;20037;-34
2023/03/24 13:29:15;;;;;;;3.95;1.52;;;;;;;18.47;58.37;96004.91;10379768;28;20041;-35
2023/03/24 13:34:41;;;;;;;5.82;1.42;;;;;;;18.51;58.23;96010.78;10385772;28;20053;-34
2023/03/24 13:39:44;;;;;;;3.88;1.38;;;;;;;18.49;58.28;96013.31;10385688;28;20522;-34
2023/03/24 13:44:47;;;;;;;9.55;1.40;;;;;;;18.53;58.41;96014.13;10396377;28;20045;-34
2023/03/24 13:49:58;;;;;;;11.95;1.50;;;;;;;18.63;57.74;96020.75;10381914;28;20493;-36
2023/03/24 13:55:01;;;;;;;3.00;1.25;;;;;;;18.43;58.11;96013.38;10391003;28;20120;-34
2023/03/24 14:00:10;;;;;;;4.35;1.15;;;;;;;18.41;58.60;96026.94;10378439;28;20045;-34
2023/03/24 14:05:31;;;;;;;2.83;1.10;;;;;;;18.35;58.14;96024.47;10378241;28;20101;-33
2023/03/24 14:10:41;;;;;;;3.97;1.02;;;;;;;18.33;58.70;95970.44;10370020;28;20037;-34
2023/03/24 14:15:55;;;;;;;3.55;0.95;;;;;;;18.29;58.94;95974.69;10378016;28;20068;-36
2023/03/24 14:20:55;;;;;;;4.93;0.90;;;;;;;18.28;58.25;96005.09;10386895;28;20501;-34
2023/03/24 14:25:57;;;;;;;1.25;0.77;;;;;;;18.27;58.37;96011.88;10383061;28;20042;-33
2023/03/24 14:31:14;;;;;;;5.60;1.00;;;;;;;18.31;59.05;96023.66;10387601;28;20116;-34
2023/03/24 14:36:24;;;;;;;5.10;0.80;;;;;;;18.28;59.35;95984.81;10385242;28;20038;-34
2023/03/24 14:41:30;;;;;;;6.18;1.27;;;;;;;18.26;59.09;96004.25;10380699;28;20116;-33
2023/03/24 14:46:42;;;;;;;3.65;1.10;;;;;;;18.20;59.45;96020.38;10376445;28;20482;-33
2023/03/24 14:51:56;;;;;;;4.85;2.15;;;;;;;18.22;59.48;96022.88;10371477;28;20060;-33
2023/03/24 14:56:57;;;;;;;7.43;1.30;;;;;;;18.19;59.45;96028.84;10376692;28;20057;-34
2023/03/24 15:02:20;;;;;;;7.05;1.50;;;;;;;18.19;59.50;96022.91;10379509;28;20113;-32
2023/03/24 15:07:21;;;;;;;4.18;2.50;;;;;;;18.17;58.84;96033.06;10370654;28;20127;-35
2023/03/24 15:12:21;;;;;;;6.83;2.27;;;;;;;18.18;58.79;96024.59;10390346;28;20112;-34
2023/03/24 15:17:23;;;;;;;8.43;1.52;;;;;;;18.16;58.82;96017.88;10386843;28;20037;-34
2023/03/24 15:22:24;;;;;;;4.38;1.58;;;;;;;18.17;58.19;96020.38;10386724;28;20529;-33
2023/03/24 15:27:25;;;;;;;4.93;1.30;;;;;;;18.16;58.58;96010.28;10384014;28;20037;-34
2023/03/24 15:32:30;;;;;;;3.42;1.20;;;;;;;18.17;57.41;96006.91;10390481;28;20049;-34
2023/03/24 15:37:40;;;;;;;3.97;1.40;;;;;;;18.20;58.01;96002.63;10393555;28;20449;-34
2023/03/24 15:42:42;;;;;;;7.15;2.47;;;;;;;18.19;59.45;96025.44;10397812;28;20088;-34
2023/03/24 15:47:43;;;;;;;15.10;3.85;;;;;;;18.20;58.54;96034.72;10394641;28;20030;-35
2023/03/24 15:52:58;;;;;;;7.33;2.60;;;;;;;18.17;58.04;96034.75;10387011;28;20037;-33
2023/03/24 15:58:03;;;;;;;9.10;1.67;;;;;;;18.15;56.64;96031.41;10383122;28;20029;-34
2023/03/24 16:03:05;;;;;;;14.20;1.83;;;;;;;18.16;59.83;96013.66;10383520;28;20041;-37
2023/03/24 16:08:40;;;;;;;8.48;2.22;;;;;;;18.18;59.68;95995.91;10380909;28;20037;-34
2023/03/24 16:13:43;;;;;;;9.52;1.45;;;;;;;18.19;59.38;95962.13;10394930;28;20045;-35
2023/03/24 16:18:46;;;;;;;10.13;1.90;;;;;;;18.19;58.98;95946.91;10387232;28;20033;-35
2023/03/24 16:23:48;;;;;;;7.80;2.75;;;;;;;18.17;60.10;95938.50;10391730;28;20509;-35
2023/03/24 16:28:49;;;;;;;9.68;2.58;;;;;;;18.17;60.62;95930.91;10392113;28;20458;-34
2023/03/24 16:33:51;;;;;;;6.28;2.13;;;;;;;18.18;60.20;95960.44;10389700;28;20130;-34
2023/03/24 16:38:56;;;;;;;9.98;1.92;;;;;;;18.10;57.04;95934.34;10388747;28;20115;-34
2023/03/24 16:43:56;;;;;;;8.20;2.28;;;;;;;18.15;60.38;95945.28;10388508;28;20041;-35
2023/03/24 16:48:57;;;;;;;8.87;2.00;;;;;;;18.15;59.87;95956.25;10393971;28;20022;-34
2023/03/24 16:53:58;;;;;;;5.03;1.63;;;;;;;18.14;60.94;95936.84;10393394;28;20037;-34
2023/03/24 16:58:58;;;;;;;6.18;1.52;;;;;;;18.14;60.43;95938.50;10392818;28;20033;-38
2023/03/24 17:04:12;;;;;;;8.30;1.93;;;;;;;18.27;58.96;95950.19;10386892;28;20047;-34
2023/03/24 17:09:13;;;;;;;7.55;1.98;;;;;;;18.21;61.01;95961.25;10381308;28;20084;-34
2023/03/24 17:14:13;;;;;;;7.07;2.13;;;;;;;18.17;60.46;95968.91;10389781;28;20076;-35
2023/03/24 17:19:16;;;;;;;11.53;2.20;;;;;;;18.12;60.89;95990.91;10394071;28;20033;-35
2023/03/24 17:24:17;;;;;;;3.20;1.42;;;;;;;18.12;60.66;95995.97;10399042;28;20293;-34
2023/03/24 17:29:18;;;;;;;9.15;2.28;;;;;;;18.13;60.43;96000.16;10385108;28;20055;-35
2023/03/24 17:34:19;;;;;;;7.15;1.35;;;;;;;18.14;60.60;96017.03;10378810;28;20105;-34
2023/03/24 17:39:20;;;;;;;3.53;1.63;;;;;;;18.09;60.45;95990.94;10387873;28;20041;-36
2023/03/24 17:44:22;;;;;;;4.00;1.30;;;;;;;18.12;60.88;96012.00;10385890;28;20034;-33
2023/03/24 17:49:23;;;;;;;8.30;2.03;;;;;;;18.12;60.97;96014.53;10388629;28;20083;-34
2023/03/24 17:54:24;;;;;;;3.80;1.77;;;;;;;18.12;60.85;96021.28;10390389;28;20575;-34
2023/03/24 17:59:24;;;;;;;4.30;1.90;;;;;;;18.14;60.61;96034.78;10380533;28;20033;-34
2023/03/24 18:04:25;;;;;;;6.47;1.30;;;;;;;18.13;59.65;96022.97;10389228;28;20026;-35
2023/03/24 18:09:25;;;;;;;3.93;1.73;;;;;;;18.14;60.49;96022.09;10379550;28;20026;-35
2023/03/24 18:14:26;;;;;;;10.55;1.55;;;;;;;18.18;60.53;96018.72;10392987;28;20040;-35
2023/03/24 18:19:26;;;;;;;3.70;1.27;;;;;;;18.14;60.72;96014.50;10383763;28;20026;-34
2023/03/24 18:24:26;;;;;;;3.73;1.80;;;;;;;18.15;60.72;96028.88;10381323;28;20047;-33
2023/03/24 18:29:27;;;;;;;2.97;1.13;;;;;;;18.15;60.63;96036.47;10381567;28;20041;-35
2023/03/24 18:34:29;;;;;;;2.33;1.00;;;;;;;18.14;60.60;96044.91;10376434;28;20030;-33
2023/03/24 18:39:29;;;;;;;3.83;1.52;;;;;;;18.14;60.49;96043.22;10382105;28;20034;-34
2023/03/24 18:44:30;;;;;;;4.03;1.13;;;;;;;18.14;60.37;96044.91;10381606;28;20037;-34
2023/03/24 18:49:30;;;;;;;3.50;1.17;;;;;;;18.14;60.48;96039.84;10389397;28;20033;-35
2023/03/24 18:54:31;;;;;;;2.92;1.15;;;;;;;18.12;58.92;96061.81;10387728;28;20033;-35
2023/03/24 18:59:31;;;;;;;2.45;1.15;;;;;;;18.12;60.07;96071.94;10389581;28;20124;-34
2023/03/24 19:04:31;;;;;;;2.23;1.20;;;;;;;18.08;56.39;96073.66;10381575;28;20026;-36
2023/03/24 19:09:32;;;;;;;2.30;1.07;;;;;;;18.04;58.16;96056.84;10381437;28;20029;-34
2023/03/24 19:14:33;;;;;;;3.80;1.20;;;;;;;18.13;60.14;96059.28;10389331;28;20037;-35
2023/03/24 19:19:33;;;;;;;1.75;1.10;;;;;;;18.14;59.82;96060.09;10386946;28;20117;-33
2023/03/24 19:24:34;;;;;;;3.72;1.38;;;;;;;18.13;59.83;96068.56;10385756;28;20390;-34
2023/03/24 19:29:34;;;;;;;2.42;1.00;;;;;;;18.11;59.35;96060.16;10376647;28;20539;-35
2023/03/24 19:34:35;;;;;;;4.07;1.00;;;;;;;18.09;58.08;96059.31;10385037;28;20087;-33
2023/03/24 19:39:36;;;;;;;2.90;0.97;;;;;;;18.10;59.44;96079.59;10390259;28;20328;-33
2023/03/24 19:44:37;;;;;;;5.30;0.90;;;;;;;18.07;57.72;96086.38;10391066;28;20040;-35
2023/03/24 19:49:37;;;;;;;4.20;1.30;;;;;;;18.07;57.97;96093.97;10385606;28;20041;-34
2023/03/24 19:54:38;;;;;;;2.42;1.30;;;;;;;18.03;57.75;96088.09;10383535;28;20680;-34
2023/03/24 19:59:38;;;;;;;4.43;1.60;;;;;;;18.04;59.57;96099.03;10391744;28;20142;-34
2023/03/24 20:04:38;;;;;;;7.83;2.83;;;;;;;18.03;59.52;96093.16;10387867;28;20056;-34
2023/03/24 20:09:39;;;;;;;2.83;0.87;;;;;;;18.06;59.47;96099.84;10391478;28;20490;-34
2023/03/24 20:14:39;;;;;;;2.87;0.90;;;;;;;18.04;57.79;96099.03;10376919;28;21672;-34
2023/03/24 20:19:40;;;;;;;4.57;1.10;;;;;;;18.07;59.55;96099.03;10385412;28;20045;-37
2023/03/24 20:24:43;;;;;;;4.20;0.93;;;;;;;18.14;59.64;96105.69;10387368;28;20135;-34
2023/03/24 20:29:45;;;;;;;8.52;1.10;;;;;;;18.14;59.82;96087.97;10390960;28;20079;-34
2023/03/24 20:34:45;;;;;;;6.10;1.02;;;;;;;18.09;57.42;96087.19;10385866;28;20042;-34
2023/03/24 20:39:45;;;;;;;5.53;0.90;;;;;;;18.10;57.74;96091.41;10387352;28;20094;-34
2023/03/24 20:44:46;;;;;;;1.70;0.90;;;;;;;18.08;56.65;96095.66;10383999;28;20307;-34
2023/03/24 20:49:46;;;;;;;4.33;0.90;;;;;;;18.08;56.15;96108.31;10387761;28;20026;-34
2023/03/24 20:54:46;;;;;;;2.43;1.37;;;;;;;18.06;55.82;96107.47;10378558;28;20050;-34
2023/03/24 20:59:47;;;;;;;1.60;0.80;;;;;;;18.04;55.77;96114.25;10385968;28;20446;-34
2023/03/24 21:04:48;;;;;;;1.38;0.82;;;;;;;18.04;55.66;96114.25;10386694;28;20037;-33
2023/03/24 21:09:48;;;;;;;2.43;0.83;;;;;;;18.02;55.62;96118.47;10389403;28;20030;-35
2023/03/24 21:14:48;;;;;;;5.23;1.13;;;;;;;18.08;58.46;96121.81;10381247;28;20292;-34
2023/03/24 21:19:49;;;;;;;2.27;1.17;;;;;;;18.12;59.88;96118.41;10381526;28;20497;-37
2023/03/24 21:24:49;;;;;;;3.15;1.10;;;;;;;18.17;60.03;96118.38;10380269;28;20033;-34
2023/03/24 21:29:50;;;;;;;3.38;0.93;;;;;;;18.11;59.34;96123.47;10383889;28;20039;-34
2023/03/24 21:34:51;;;;;;;2.85;0.90;;;;;;;18.09;57.79;96132.78;10379800;28;20056;-33
2023/03/24 21:39:51;;;;;;;3.50;1.33;;;;;;;18.08;57.24;96138.72;10381507;28;20057;-34
2023/03/24 21:44:51;;;;;;;2.00;0.93;;;;;;;18.06;55.90;96153.06;10378350;28;20086;-34
2023/03/24 21:49:57;;;;;;;2.03;0.93;;;;;;;18.06;56.57;96163.19;10367902;28;20034;-34
2023/03/24 21:54:59;;;;;;;1.95;0.98;;;;;;;18.07;56.78;96170.78;10380945;28;20140;-35
2023/03/24 22:00:00;;;;;;;1.63;0.98;;;;;;;18.06;56.30;96158.13;10385060;28;20041;-34
2023/03/24 22:05:01;;;;;;;1.00;0.68;;;;;;;18.06;55.72;96178.38;10381709;28;20464;-34
2023/03/24 22:10:04;;;;;;;2.47;1.00;;;;;;;18.03;56.30;96191.06;10382443;28;20042;-34
2023/03/24 22:15:05;;;;;;;2.38;1.10;;;;;;;18.06;57.74;96181.78;10391486;28;20761;-34
2023/03/24 22:20:08;;;;;;;3.33;0.80;;;;;;;18.11;59.79;96189.34;10392439;28;20033;-34
2023/03/24 22:25:10;;;;;;;3.00;0.90;;;;;;;18.13;59.95;96175.81;10373173;28;20038;-36
2023/03/24 22:30:12;;;;;;;0.98;0.70;;;;;;;18.09;58.33;96186.81;10371175;28;20032;-35
2023/03/24 22:35:12;;;;;;;4.00;0.93;;;;;;;18.07;56.53;96175.03;10382698;28;20049;-35
2023/03/24 22:40:13;;;;;;;2.38;0.60;;;;;;;18.05;55.98;96181.78;10395087;28;20389;-36
2023/03/24 22:45:15;;;;;;;2.33;0.90;;;;;;;18.06;58.26;96193.56;10392702;28;20531;-34
2023/03/24 22:50:16;;;;;;;2.20;0.98;;;;;;;18.05;56.21;96184.31;10390256;28;20409;-34
2023/03/24 22:55:16;;;;;;;1.83;0.90;;;;;;;18.05;56.99;96197.81;10391548;28;20037;-34
2023/03/24 23:00:18;;;;;;;1.83;0.80;;;;;;;18.04;55.96;96195.28;10383561;28;20304;-35
2023/03/24 23:05:18;;;;;;;3.42;0.65;;;;;;;18.04;56.30;96195.28;10385982;28;20387;-35
2023/03/24 23:10:19;;;;;;;1.08;0.73;;;;;;;18.03;55.99;96199.53;10385670;28;20104;-34
2023/03/24 23:15:22;;;;;;;1.60;0.73;;;;;;;18.03;55.52;96193.59;10380615;28;20060;-34
2023/03/24 23:20:22;;;;;;;1.95;0.82;;;;;;;18.03;56.45;96193.59;10382285;28;20764;-34
2023/03/24 23:25:29;;;;;;;4.82;1.20;;;;;;;18.09;59.32;96199.47;10387084;28;20036;-35
2023/03/24 23:30:29;;;;;;;;;;;;;;;18.12;59.49;96207.06;10390256;28;20053;-35
2023/03/24 23:35:30;;;;;;;2.70;0.87;;;;;;;18.00;57.76;96191.13;10380289;28;20044;-35
2023/03/24 23:40:31;;;;;;;5.30;1.23;;;;;;;18.03;56.67;96199.53;10393010;28;20044;-34